Wetterdaten: Woche 10.08.15 - 16.08.15 (KW33)
Datum Zeit Temp. A. Feuchte A. Luftdruck Regen Wind Richtung Taupunkt Windchill Windben
10.08.2015 00:00 21,3 C 68 % 1013,8 hPa 0,0 l/m 0,0 km/h N 15,1 C 21,3 C 0,0 km/h
10.08.2015 01:00 20,1 C 72 % 1013,8 hPa 0,0 l/m 0,0 km/h N 14,9 C 20,1 C 0,0 km/h
10.08.2015 02:00 19,3 C 74 % 1013,8 hPa 0,0 l/m 0,0 km/h N 14,6 C 19,3 C 0,0 km/h
10.08.2015 03:00 18,6 C 76 % 1013,9 hPa 0,0 l/m 0,0 km/h N 14,2 C 18,6 C 0,0 km/h
10.08.2015 04:00 18,3 C 76 % 1013,6 hPa 0,0 l/m 0,2 km/h N 13,9 C 18,3 C 1,6 km/h
10.08.2015 05:00 18,3 C 76 % 1013,6 hPa 0,0 l/m 0,0 km/h N 13,9 C 18,3 C 0,4 km/h
10.08.2015 06:00 17,9 C 77 % 1014,2 hPa 0,0 l/m 0,0 km/h N 13,8 C 17,9 C 0,0 km/h
10.08.2015 07:00 19,1 C 77 % 1014,3 hPa 0,0 l/m 0,1 km/h N 15,0 C 19,1 C 1,6 km/h
10.08.2015 08:00 22,8 C 67 % 1014,3 hPa 0,0 l/m 0,0 km/h N 16,2 C 22,8 C 0,8 km/h
10.08.2015 09:00 28,6 C 51 % 1013,9 hPa 0,0 l/m 0,3 km/h N 17,2 C 28,6 C 4,8 km/h
10.08.2015 10:00 33,5 C 33 % 1013,9 hPa 0,0 l/m 1,7 km/h N 15,0 C 33,5 C 8,0 km/h
10.08.2015 11:00 35,0 C 28 % 1013,6 hPa 0,0 l/m 2,9 km/h N 13,4 C 35,0 C 13,7 km/h
10.08.2015 12:00 35,7 C 26 % 1013,3 hPa 0,0 l/m 3,1 km/h N 13,0 C 35,7 C 13,3 km/h
10.08.2015 13:00 36,4 C 26 % 1012,8 hPa 0,0 l/m 2,3 km/h N 13,6 C 36,4 C 10,9 km/h
10.08.2015 14:00 36,3 C 26 % 1012,5 hPa 0,0 l/m 2,8 km/h N 13,7 C 36,3 C 15,3 km/h
10.08.2015 15:00 35,4 C 27 % 1012,0 hPa 0,0 l/m 3,2 km/h N 13,2 C 35,4 C 15,7 km/h
10.08.2015 16:00 34,0 C 28 % 1011,7 hPa 0,0 l/m 2,8 km/h N 12,6 C 34,0 C 13,3 km/h
10.08.2015 17:00 33,4 C 29 % 1011,6 hPa 0,0 l/m 1,7 km/h N 13,0 C 33,4 C 10,1 km/h
10.08.2015 18:00 32,8 C 30 % 1011,3 hPa 0,0 l/m 0,4 km/h N 12,7 C 32,8 C 7,2 km/h
10.08.2015 19:00 32,1 C 32 % 1011,3 hPa 0,0 l/m 0,2 km/h N 13,0 C 32,1 C 4,4 km/h
10.08.2015 20:00 29,8 C 39 % 1011,2 hPa 0,0 l/m 0,0 km/h N 14,2 C 29,8 C 0,0 km/h
10.08.2015 21:00 25,8 C 48 % 1011,5 hPa 0,0 l/m 0,0 km/h N 14,0 C 25,8 C 0,0 km/h
10.08.2015 22:00 23,6 C 55 % 1011,5 hPa 0,0 l/m 0,0 km/h N 14,0 C 23,6 C 1,2 km/h
10.08.2015 23:00 22,3 C 58 % 1011,7 hPa 0,0 l/m 0,2 km/h N 13,7 C 22,3 C 2,0 km/h
11.08.2015 00:00 22,0 C 58 % 1011,8 hPa 0,0 l/m 0,1 km/h N 13,3 C 22,0 C 1,2 km/h
11.08.2015 01:00 21,5 C 59 % 1011,9 hPa 0,0 l/m 0,1 km/h N 13,1 C 21,5 C 2,0 km/h
11.08.2015 02:00 21,1 C 61 % 1011,8 hPa 0,0 l/m 0,2 km/h N 13,3 C 21,1 C 2,4 km/h
11.08.2015 03:00 19,8 C 67 % 1012,0 hPa 0,0 l/m 0,0 km/h N 13,5 C 19,8 C 0,8 km/h
11.08.2015 04:00 19,3 C 68 % 1011,9 hPa 0,0 l/m 0,1 km/h N 13,2 C 19,3 C 1,2 km/h
11.08.2015 05:00 19,5 C 67 % 1012,1 hPa 0,0 l/m 0,5 km/h N 13,1 C 19,5 C 4,8 km/h
11.08.2015 06:00 19,5 C 67 % 1012,4 hPa 0,0 l/m 0,2 km/h N 13,2 C 19,5 C 2,8 km/h
11.08.2015 07:00 20,4 C 69 % 1012,6 hPa 0,0 l/m 0,1 km/h N 14,4 C 20,4 C 1,2 km/h
11.08.2015 08:00 23,6 C 60 % 1013,1 hPa 0,0 l/m 0,0 km/h N 15,4 C 23,6 C 1,2 km/h
11.08.2015 09:00 28,9 C 45 % 1013,2 hPa 0,0 l/m 0,1 km/h N 15,7 C 28,9 C 2,0 km/h
11.08.2015 10:00 32,0 C 38 % 1013,1 hPa 0,0 l/m 0,2 km/h N 15,6 C 32,0 C 2,4 km/h
11.08.2015 11:00 34,2 C 32 % 1013,0 hPa 0,0 l/m 0,3 km/h N 15,0 C 34,2 C 3,6 km/h
11.08.2015 12:00 36,3 C 25 % 1013,0 hPa 0,0 l/m 1,3 km/h N 12,9 C 36,3 C 8,4 km/h
11.08.2015 13:00 37,1 C 23 % 1012,6 hPa 0,0 l/m 1,7 km/h N 12,6 C 37,1 C 10,5 km/h
11.08.2015 14:00 37,0 C 23 % 1012,3 hPa 0,0 l/m 2,0 km/h N 12,2 C 37,0 C 12,1 km/h
11.08.2015 15:00 35,7 C 23 % 1012,2 hPa 0,0 l/m 2,2 km/h N 11,4 C 35,7 C 11,3 km/h
11.08.2015 16:00 34,9 C 24 % 1012,1 hPa 0,0 l/m 2,0 km/h N 11,4 C 34,9 C 12,1 km/h
11.08.2015 17:00 34,0 C 26 % 1012,2 hPa 0,0 l/m 2,2 km/h N 11,5 C 34,0 C 10,9 km/h
11.08.2015 18:00 33,3 C 27 % 1012,2 hPa 0,0 l/m 1,4 km/h N 11,6 C 33,3 C 10,1 km/h
11.08.2015 19:00 32,7 C 31 % 1012,3 hPa 0,0 l/m 0,1 km/h N 13,0 C 32,7 C 2,0 km/h
11.08.2015 20:00 29,0 C 38 % 1012,4 hPa 0,0 l/m 0,0 km/h N 13,3 C 29,0 C 0,0 km/h
11.08.2015 21:00 25,3 C 47 % 1013,1 hPa 0,0 l/m 0,0 km/h N 13,0 C 25,3 C 0,4 km/h
11.08.2015 22:00 23,8 C 50 % 1013,3 hPa 0,0 l/m 0,1 km/h N 12,6 C 23,8 C 2,8 km/h
11.08.2015 23:00 23,9 C 48 % 1013,6 hPa 0,0 l/m 0,7 km/h N 12,1 C 23,9 C 4,8 km/h
12.08.2015 00:00 23,3 C 50 % 1013,9 hPa 0,0 l/m 0,9 km/h N 12,2 C 23,3 C 4,4 km/h
12.08.2015 01:00 22,0 C 54 % 1014,1 hPa 0,0 l/m 0,1 km/h N 12,1 C 22,0 C 2,0 km/h
12.08.2015 02:00 21,4 C 53 % 1013,8 hPa 0,0 l/m 0,3 km/h N 11,3 C 21,4 C 3,2 km/h
12.08.2015 03:00 21,2 C 55 % 1013,8 hPa 0,0 l/m 0,4 km/h N 11,6 C 21,2 C 3,2 km/h
12.08.2015 04:00 20,8 C 58 % 1014,3 hPa 0,0 l/m 0,1 km/h N 12,3 C 20,8 C 1,2 km/h
12.08.2015 05:00 20,0 C 57 % 1014,3 hPa 0,0 l/m 0,7 km/h N 11,2 C 20,0 C 4,0 km/h
12.08.2015 06:00 21,1 C 57 % 1014,8 hPa 0,0 l/m 0,1 km/h N 12,2 C 21,1 C 1,2 km/h
12.08.2015 07:00 21,3 C 60 % 1015,5 hPa 0,0 l/m 0,1 km/h N 13,2 C 21,3 C 1,2 km/h
12.08.2015 08:00 23,9 C 54 % 1015,9 hPa 0,0 l/m 0,0 km/h N 13,9 C 23,9 C 0,0 km/h
12.08.2015 09:00 27,7 C 45 % 1016,0 hPa 0,0 l/m 1,4 km/h N 14,5 C 27,7 C 5,2 km/h
12.08.2015 10:00 30,4 C 39 % 1016,0 hPa 0,0 l/m 3,8 km/h N 14,7 C 30,4 C 11,3 km/h
12.08.2015 11:00 32,0 C 38 % 1015,5 hPa 0,0 l/m 3,6 km/h N 15,7 C 32,0 C 12,1 km/h
12.08.2015 12:00 33,5 C 35 % 1015,3 hPa 0,0 l/m 2,0 km/h N 16,0 C 33,5 C 9,6 km/h
12.08.2015 13:00 34,6 C 34 % 1015,0 hPa 0,0 l/m 2,3 km/h N 16,4 C 34,6 C 10,1 km/h
12.08.2015 14:00 36,5 C 31 % 1014,3 hPa 0,0 l/m 0,8 km/h N 16,3 C 36,5 C 6,8 km/h
12.08.2015 15:00 36,1 C 30 % 1013,8 hPa 0,0 l/m 1,2 km/h N 15,7 C 36,1 C 9,7 km/h
12.08.2015 16:00 35,5 C 30 % 1013,6 hPa 0,0 l/m 0,8 km/h N 14,9 C 35,5 C 8,0 km/h
12.08.2015 17:00 35,4 C 32 % 1013,4 hPa 0,0 l/m 0,2 km/h N 16,2 C 35,4 C 3,2 km/h
12.08.2015 18:00 34,1 C 36 % 1013,5 hPa 0,0 l/m 0,0 km/h N 16,7 C 34,1 C 0,8 km/h
12.08.2015 19:00 31,7 C 40 % 1013,8 hPa 0,0 l/m 0,0 km/h N 16,2 C 31,7 C 0,4 km/h
12.08.2015 20:00 30,1 C 46 % 1014,2 hPa 0,0 l/m 0,2 km/h N 17,3 C 30,1 C 3,6 km/h
12.08.2015 21:00 28,3 C 51 % 1014,8 hPa 0,0 l/m 0,0 km/h N 17,1 C 28,3 C 0,8 km/h
12.08.2015 22:00 26,4 C 56 % 1015,0 hPa 0,0 l/m 0,6 km/h N 16,9 C 26,4 C 3,2 km/h
12.08.2015 23:00 25,7 C 58 % 1015,3 hPa 0,0 l/m 0,4 km/h N 16,7 C 25,7 C 1,6 km/h
13.08.2015 00:00 24,6 C 62 % 1015,0 hPa 0,0 l/m 0,2 km/h N 16,7 C 24,6 C 2,4 km/h
13.08.2015 01:00 23,3 C 67 % 1015,1 hPa 0,0 l/m 0,1 km/h N 16,8 C 23,3 C 1,6 km/h
13.08.2015 02:00 22,0 C 71 % 1014,8 hPa 0,0 l/m 0,0 km/h N 16,5 C 22,0 C 2,0 km/h
13.08.2015 03:00 21,5 C 73 % 1014,8 hPa 0,0 l/m 0,0 km/h N 16,3 C 21,5 C 0,4 km/h
13.08.2015 04:00 20,7 C 75 % 1014,8 hPa 0,0 l/m 0,0 km/h N 16,1 C 20,7 C 0,4 km/h
13.08.2015 05:00 20,0 C 77 % 1015,1 hPa 0,0 l/m 0,0 km/h N 15,7 C 20,0 C 0,0 km/h
13.08.2015 06:00 19,8 C 78 % 1015,5 hPa 0,0 l/m 0,0 km/h N 15,7 C 19,8 C 0,0 km/h
13.08.2015 07:00 21,0 C 77 % 1015,6 hPa 0,0 l/m 0,0 km/h N 16,7 C 21,0 C 1,2 km/h
13.08.2015 08:00 24,9 C 62 % 1015,5 hPa 0,0 l/m 2,3 km/h N 17,1 C 24,9 C 7,6 km/h
13.08.2015 09:00 27,3 C 53 % 1015,4 hPa 0,0 l/m 3,6 km/h N 16,9 C 27,3 C 9,3 km/h
13.08.2015 10:00 28,9 C 50 % 1015,2 hPa 0,0 l/m 3,3 km/h N 17,5 C 28,9 C 10,9 km/h
13.08.2015 11:00 30,3 C 47 % 1014,8 hPa 0,0 l/m 3,6 km/h N 17,7 C 30,3 C 11,3 km/h
13.08.2015 12:00 31,9 C 43 % 1014,3 hPa 0,0 l/m 1,8 km/h N 17,7 C 31,9 C 9,6 km/h
13.08.2015 13:00 33,7 C 40 % 1013,7 hPa 0,0 l/m 2,1 km/h N 18,2 C 33,7 C 12,1 km/h
13.08.2015 14:00 35,3 C 37 % 1012,9 hPa 0,0 l/m 1,4 km/h N 18,4 C 35,3 C 9,6 km/h
13.08.2015 15:00 35,5 C 34 % 1012,1 hPa 0,0 l/m 1,4 km/h N 17,3 C 35,5 C 9,3 km/h
13.08.2015 16:00 35,0 C 33 % 1011,4 hPa 0,0 l/m 1,5 km/h N 16,0 C 35,0 C 8,0 km/h
13.08.2015 17:00 35,0 C 32 % 1011,1 hPa 0,0 l/m 0,9 km/h N 15,5 C 35,0 C 8,4 km/h
13.08.2015 18:00 34,5 C 36 % 1010,9 hPa 0,0 l/m 0,6 km/h N 17,3 C 34,5 C 7,6 km/h
13.08.2015 19:00 32,9 C 40 % 1010,8 hPa 0,0 l/m 0,1 km/h N 17,5 C 32,9 C 2,0 km/h
13.08.2015 20:00 30,6 C 45 % 1010,8 hPa 0,0 l/m 0,0 km/h N 17,2 C 30,6 C 0,0 km/h
13.08.2015 21:00 27,7 C 52 % 1010,9 hPa 0,0 l/m 0,0 km/h N 16,8 C 27,7 C 0,0 km/h
13.08.2015 22:00 25,1 C 61 % 1010,9 hPa 0,0 l/m 0,0 km/h N 16,9 C 25,1 C 0,4 km/h
13.08.2015 23:00 23,4 C 66 % 1010,9 hPa 0,0 l/m 0,1 km/h N 16,6 C 23,4 C 0,8 km/h
14.08.2015 00:00 22,5 C 68 % 1011,0 hPa 0,0 l/m 0,0 km/h N 16,3 C 22,5 C 0,0 km/h
14.08.2015 01:00 21,4 C 72 % 1011,1 hPa 0,0 l/m 0,0 km/h N 16,1 C 21,4 C 0,0 km/h
14.08.2015 02:00 20,5 C 74 % 1010,9 hPa 0,0 l/m 0,0 km/h N 15,6 C 20,5 C 0,0 km/h
14.08.2015 03:00 19,9 C 76 % 1010,8 hPa 0,0 l/m 0,0 km/h N 15,4 C 19,9 C 0,0 km/h
14.08.2015 04:00 19,3 C 77 % 1010,6 hPa 0,0 l/m 0,0 km/h N 15,1 C 19,3 C 0,0 km/h
14.08.2015 05:00 18,5 C 78 % 1010,6 hPa 0,0 l/m 0,0 km/h N 14,7 C 18,5 C 0,4 km/h
14.08.2015 06:00 18,0 C 80 % 1010,6 hPa 0,0 l/m 0,0 km/h N 14,5 C 18,0 C 0,0 km/h
14.08.2015 07:00 18,9 C 80 % 1010,7 hPa 0,0 l/m 0,0 km/h N 15,3 C 18,9 C 0,4 km/h
14.08.2015 08:00 22,6 C 72 % 1010,7 hPa 0,0 l/m 0,2 km/h N 17,2 C 22,6 C 2,4 km/h
14.08.2015 09:00 28,2 C 54 % 1010,5 hPa 0,0 l/m 0,6 km/h N 18,0 C 28,2 C 7,2 km/h
14.08.2015 10:00 31,5 C 46 % 1010,0 hPa 0,0 l/m 2,3 km/h N 18,4 C 31,5 C 10,9 km/h
14.08.2015 11:00 33,4 C 43 % 1009,5 hPa 0,0 l/m 2,8 km/h N 18,9 C 33,4 C 12,9 km/h
14.08.2015 12:00 34,9 C 40 % 1008,8 hPa 0,0 l/m 3,7 km/h N 19,1 C 34,9 C 15,7 km/h
14.08.2015 13:00 35,5 C 39 % 1008,2 hPa 0,0 l/m 4,7 km/h N 19,2 C 35,5 C 17,3 km/h
14.08.2015 14:00 36,2 C 35 % 1007,5 hPa 0,0 l/m 4,9 km/h N 18,3 C 36,2 C 17,7 km/h
14.08.2015 15:00 35,5 C 34 % 1006,8 hPa 0,0 l/m 6,0 km/h N 16,9 C 35,5 C 18,9 km/h
14.08.2015 16:00 35,2 C 32 % 1006,2 hPa 0,0 l/m 6,7 km/h N 15,8 C 35,2 C 19,3 km/h
14.08.2015 17:00 34,7 C 33 % 1005,7 hPa 0,0 l/m 6,6 km/h N 16,0 C 34,7 C 20,9 km/h
14.08.2015 18:00 34,0 C 34 % 1005,6 hPa 0,0 l/m 5,7 km/h N 15,8 C 34,0 C 16,9 km/h
14.08.2015 19:00 32,9 C 36 % 1005,8 hPa 0,0 l/m 3,4 km/h N 15,9 C 32,9 C 13,7 km/h
14.08.2015 20:00 31,1 C 42 % 1005,9 hPa 0,0 l/m 1,3 km/h N 16,6 C 31,1 C 8,4 km/h
14.08.2015 21:00 29,1 C 49 % 1006,0 hPa 0,0 l/m 0,2 km/h N 17,2 C 29,1 C 3,6 km/h
14.08.2015 22:00 26,8 C 55 % 1006,1 hPa 0,0 l/m 0,0 km/h N 16,8 C 26,8 C 0,0 km/h
14.08.2015 23:00 24,6 C 62 % 1006,1 hPa 0,0 l/m 0,0 km/h N 16,9 C 24,6 C 0,0 km/h
15.08.2015 00:00 24,6 C 59 % 1005,7 hPa 0,0 l/m 0,1 km/h N 16,0 C 24,6 C 2,0 km/h
15.08.2015 01:00 24,8 C 61 % 1005,5 hPa 0,0 l/m 0,0 km/h N 16,8 C 24,8 C 0,0 km/h
15.08.2015 02:00 23,6 C 67 % 1005,5 hPa 0,0 l/m 0,3 km/h N 17,0 C 23,6 C 2,8 km/h
15.08.2015 03:00 23,4 C 68 % 1005,4 hPa 0,0 l/m 0,0 km/h N 17,1 C 23,4 C 0,0 km/h
15.08.2015 04:00 22,0 C 72 % 1005,5 hPa 0,0 l/m 0,0 km/h N 16,7 C 22,0 C 0,4 km/h
15.08.2015 05:00 21,7 C 73 % 1005,8 hPa 0,0 l/m 0,0 km/h N 16,6 C 21,7 C 0,8 km/h
15.08.2015 06:00 21,3 C 75 % 1006,3 hPa 0,0 l/m 0,0 km/h N 16,6 C 21,3 C 1,2 km/h
15.08.2015 07:00 23,5 C 67 % 1006,8 hPa 0,0 l/m 2,7 km/h N 17,1 C 23,5 C 11,3 km/h
15.08.2015 08:00 25,4 C 61 % 1006,9 hPa 0,0 l/m 2,0 km/h N 17,2 C 25,4 C 14,5 km/h
15.08.2015 09:00 26,6 C 57 % 1007,3 hPa 0,0 l/m 4,3 km/h N 17,3 C 26,6 C 16,1 km/h
15.08.2015 10:00 27,2 C 54 % 1007,6 hPa 0,0 l/m 7,9 km/h N 16,9 C 26,9 C 21,7 km/h
15.08.2015 11:00 28,4 C 48 % 1007,8 hPa 0,0 l/m 6,8 km/h N 16,1 C 28,3 C 20,5 km/h
15.08.2015 12:00 29,0 C 47 % 1007,0 hPa 0,0 l/m 6,8 km/h N 16,5 C 28,9 C 18,5 km/h
15.08.2015 13:00 28,6 C 47 % 1006,9 hPa 0,0 l/m 2,2 km/h N 16,2 C 28,6 C 9,3 km/h
15.08.2015 14:00 30,8 C 44 % 1006,3 hPa 0,0 l/m 1,0 km/h N 17,0 C 30,8 C 8,0 km/h
15.08.2015 15:00 31,5 C 43 % 1005,3 hPa 0,0 l/m 1,3 km/h N 17,3 C 31,5 C 6,8 km/h
15.08.2015 16:00 30,6 C 45 % 1005,1 hPa 0,0 l/m 0,1 km/h N 17,3 C 30,6 C 4,0 km/h
15.08.2015 17:00 29,9 C 48 % 1004,9 hPa 0,0 l/m 0,2 km/h N 17,6 C 29,9 C 1,6 km/h
15.08.2015 18:00 30,7 C 45 % 1004,6 hPa 0,0 l/m 0,2 km/h N 17,3 C 30,7 C 3,2 km/h
15.08.2015 19:00 29,8 C 48 % 1004,6 hPa 0,0 l/m 0,0 km/h N 17,6 C 29,8 C 0,8 km/h
15.08.2015 20:00 27,2 C 54 % 1004,9 hPa 0,0 l/m 0,0 km/h N 17,0 C 27,2 C 1,2 km/h
15.08.2015 21:00 25,2 C 60 % 1005,2 hPa 0,0 l/m 0,0 km/h N 16,9 C 25,2 C 0,4 km/h
15.08.2015 22:00 23,6 C 67 % 1005,1 hPa 0,0 l/m 0,0 km/h N 17,0 C 23,6 C 0,4 km/h
15.08.2015 23:00 23,1 C 72 % 1005,4 hPa 0,0 l/m 0,3 km/h N 17,7 C 23,1 C 4,0 km/h
16.08.2015 00:00 22,6 C 74 % 1005,4 hPa 0,0 l/m 0,3 km/h N 17,6 C 22,6 C 4,0 km/h
16.08.2015 01:00 23,0 C 75 % 1006,6 hPa 2,6 l/m 0,4 km/h N 18,2 C 23,0 C 4,8 km/h
16.08.2015 02:00 21,5 C 79 % 1006,7 hPa 0,5 l/m 0,4 km/h N 17,7 C 21,5 C 3,6 km/h
16.08.2015 03:00 20,7 C 80 % 1006,9 hPa 0,0 l/m 0,0 km/h N 17,1 C 20,7 C 0,0 km/h
16.08.2015 04:00 20,0 C 80 % 1007,1 hPa 0,0 l/m 0,0 km/h N 16,4 C 20,0 C 0,0 km/h
16.08.2015 05:00 19,8 C 79 % 1006,8 hPa 0,0 l/m 0,6 km/h N 16,0 C 19,8 C 4,0 km/h
16.08.2015 06:00 19,6 C 78 % 1006,6 hPa 0,0 l/m 0,0 km/h N 15,7 C 19,6 C 0,8 km/h
16.08.2015 07:00 19,8 C 78 % 1006,9 hPa 0,0 l/m 0,1 km/h N 15,8 C 19,8 C 2,0 km/h
16.08.2015 08:00 20,6 C 78 % 1007,1 hPa 0,0 l/m 0,0 km/h N 16,5 C 20,6 C 0,4 km/h
16.08.2015 09:00 21,8 C 79 % 1007,4 hPa 0,0 l/m 0,1 km/h N 18,0 C 21,8 C 2,8 km/h
16.08.2015 10:00 23,1 C 76 % 1007,2 hPa 0,0 l/m 2,0 km/h N 18,6 C 23,1 C 6,0 km/h
16.08.2015 11:00 25,6 C 65 % 1006,9 hPa 0,0 l/m 1,4 km/h N 18,5 C 25,6 C 7,2 km/h
16.08.2015 12:00 28,0 C 58 % 1006,5 hPa 0,0 l/m 0,8 km/h N 18,8 C 28,0 C 5,6 km/h
16.08.2015 13:00 28,3 C 56 % 1006,3 hPa 0,0 l/m 1,3 km/h N 18,8 C 28,3 C 8,4 km/h
16.08.2015 14:00 29,3 C 53 % 1006,0 hPa 0,0 l/m 1,0 km/h N 18,6 C 29,3 C 8,4 km/h
16.08.2015 15:00 28,7 C 53 % 1005,5 hPa 0,0 l/m 1,4 km/h N 18,1 C 28,7 C 7,2 km/h
16.08.2015 16:00 28,6 C 53 % 1005,1 hPa 0,0 l/m 0,8 km/h N 18,1 C 28,6 C 7,6 km/h
16.08.2015 17:00 27,6 C 56 % 1005,1 hPa 0,0 l/m 4,1 km/h N 18,1 C 27,6 C 12,5 km/h
16.08.2015 18:00 25,8 C 62 % 1005,1 hPa 0,0 l/m 6,5 km/h N 17,9 C 25,7 C 18,5 km/h
16.08.2015 19:00 24,6 C 64 % 1005,4 hPa 0,0 l/m 3,2 km/h N 17,4 C 24,6 C 12,9 km/h
16.08.2015 20:00 23,4 C 66 % 1005,6 hPa 0,0 l/m 3,3 km/h N 16,7 C 23,4 C 16,1 km/h
16.08.2015 21:00 22,4 C 69 % 1005,9 hPa 0,0 l/m 5,3 km/h N 16,3 C 22,2 C 20,5 km/h
16.08.2015 22:00 21,0 C 74 % 1006,0 hPa 0,0 l/m 4,0 km/h N 16,1 C 21,0 C 22,1 km/h
16.08.2015 23:00 20,7 C 75 % 1006,5 hPa 0,0 l/m 3,5 km/h N 16,1 C 20,7 C 16,5 km/h
Min-Datum _ 10.08.15 11.08.15 15.08.15 - 10.08.15 - 12.08.15 10.08.15 10.08.15
_ Min-Zeit 06:30 13:15 19:30 - 00:00 - 05:30 06:30 00:00
Minimum _ 17,8 C 22 % 1004,5 hPa - 0,0 km/h - 11,0 C 17,8 C 0,0 km/h
Max-Datum _ 12.08.15 14.08.15 12.08.15 16.08.15 15.08.15 - 14.08.15 12.08.15 16.08.15
_ Max-Zeit 14:45 06:15 09:45 01:30 10:45 - 12:45 14:30 21:45
Maximum _ 37,5 C 80 % 1016,1 hPa 2,6 l/m 8,8 km/h
N
- 19,5 C 37,4 C 25,7 km/h
N
Durchschnitt _ 26,9 C 54 % 1010,6 hPa #3,1 l/m 1,2 km/h N 15,7 C 26,9 C 5,9 km/h